createdAt,value
2022-10-29T00:01:44.475Z,20.98
2022-10-29T00:04:12.421Z,20.97
2022-10-29T00:06:40.321Z,21.08
2022-10-29T00:09:08.439Z,21.03
2022-10-29T00:11:36.356Z,21.14
2022-10-29T00:14:04.171Z,21.15
2022-10-29T00:16:37.900Z,20.85
2022-10-29T00:19:07.330Z,20.75
2022-10-29T00:21:35.579Z,20.69
2022-10-29T00:24:03.471Z,20.56
2022-10-29T00:26:31.421Z,20.53
2022-10-29T00:28:59.303Z,20.60
2022-10-29T00:31:27.220Z,20.77
2022-10-29T00:33:56.358Z,20.75
2022-10-29T00:36:26.837Z,20.72
2022-10-29T00:38:54.757Z,20.77
2022-10-29T00:41:26.564Z,20.73
2022-10-29T00:44:26.358Z,20.84
2022-10-29T00:46:56.942Z,20.80
2022-10-29T00:49:25.579Z,20.76
2022-10-29T00:51:54.780Z,20.69
2022-10-29T00:54:22.620Z,20.74
2022-10-29T00:56:52.290Z,20.72
2022-10-29T00:59:20.501Z,20.78
2022-10-29T01:01:49.669Z,20.66
2022-10-29T01:04:18.434Z,20.57
2022-10-29T01:06:47.091Z,20.68
2022-10-29T01:09:16.481Z,20.74
2022-10-29T01:11:53.042Z,20.76
2022-10-29T01:14:28.586Z,20.82
2022-10-29T01:17:01.432Z,20.71
2022-10-29T01:19:47.337Z,20.74
2022-10-29T01:22:17.533Z,20.86
2022-10-29T01:25:01.713Z,20.85
2022-10-29T01:27:49.235Z,20.86
2022-10-29T01:30:22.014Z,20.91
2022-10-29T01:33:10.422Z,20.88
2022-10-29T01:35:46.652Z,20.69
2022-10-29T01:38:23.522Z,20.67
2022-10-29T01:40:56.731Z,20.54
2022-10-29T01:43:27.023Z,20.54
2022-10-29T01:45:59.635Z,20.53
2022-10-29T01:48:33.370Z,20.37
2022-10-29T01:51:05.202Z,20.33
2022-10-29T01:53:36.208Z,20.24
2022-10-29T01:56:04.316Z,20.22
2022-10-29T01:58:32.966Z,20.21
2022-10-29T02:01:08.237Z,20.11
2022-10-29T02:03:51.222Z,20.12
2022-10-29T02:06:29.338Z,19.94
2022-10-29T02:09:02.837Z,20.00
2022-10-29T02:11:35.659Z,19.96
2022-10-29T02:14:05.152Z,20.16
2022-10-29T02:16:34.510Z,20.20
2022-10-29T02:19:03.834Z,20.11
2022-10-29T02:21:31.697Z,20.06
2022-10-29T02:23:59.570Z,19.82
2022-10-29T02:26:27.443Z,19.70
2022-10-29T02:28:55.264Z,19.63
2022-10-29T02:31:23.180Z,19.79
2022-10-29T02:33:51.013Z,19.72
2022-10-29T02:36:20.310Z,19.80
2022-10-29T02:38:48.156Z,19.81
2022-10-29T02:41:16.068Z,19.58
2022-10-29T02:43:44.016Z,19.59
2022-10-29T02:46:13.628Z,19.45
2022-10-29T02:48:41.535Z,19.57
2022-10-29T02:51:09.465Z,19.64
2022-10-29T02:53:38.944Z,19.44
2022-10-29T02:56:07.976Z,19.56
2022-10-29T02:58:36.228Z,19.49
2022-10-29T03:01:04.557Z,19.42
2022-10-29T03:03:32.404Z,19.11
2022-10-29T03:06:00.296Z,19.19
2022-10-29T03:08:28.325Z,19.04
2022-10-29T03:10:57.560Z,18.98
2022-10-29T03:13:25.553Z,19.00
2022-10-29T03:15:53.380Z,18.96
2022-10-29T03:18:21.208Z,19.01
2022-10-29T03:20:49.099Z,18.74
2022-10-29T03:23:16.956Z,18.49
2022-10-29T03:25:44.889Z,18.41
2022-10-29T03:28:14.115Z,18.47
2022-10-29T03:30:42.001Z,18.71
2022-10-29T03:33:09.918Z,18.87
2022-10-29T03:35:37.829Z,18.89
2022-10-29T03:38:05.784Z,18.90
2022-10-29T03:40:33.604Z,18.84
2022-10-29T03:43:01.674Z,18.82
2022-10-29T03:45:30.844Z,18.72
2022-10-29T03:47:58.918Z,18.63
2022-10-29T03:50:27.059Z,18.84
2022-10-29T03:52:54.941Z,18.86
2022-10-29T03:55:22.812Z,18.87
2022-10-29T03:57:50.777Z,18.86
2022-10-29T04:00:18.745Z,18.91
2022-10-29T04:02:48.230Z,18.84
2022-10-29T04:05:16.251Z,18.68
2022-10-29T04:07:44.189Z,18.55
2022-10-29T04:10:12.229Z,18.74
2022-10-29T04:12:40.043Z,19.07
2022-10-29T04:15:08.735Z,19.23
2022-10-29T04:17:36.589Z,19.14
2022-10-29T04:20:13.795Z,19.00
2022-10-29T04:28:45.395Z,18.93
2022-10-29T04:31:13.855Z,19.10
2022-10-29T04:33:41.710Z,19.11
2022-10-29T04:36:11.177Z,19.16
2022-10-29T04:38:39.156Z,19.07
2022-10-29T04:41:07.069Z,19.07
2022-10-29T04:43:34.943Z,19.08
2022-10-29T04:46:03.025Z,19.12
2022-10-29T04:48:30.946Z,18.99
2022-10-29T04:50:58.738Z,19.03
2022-10-29T04:53:27.921Z,19.06
2022-10-29T04:56:01.310Z,19.05
2022-10-29T04:58:29.539Z,19.05
2022-10-29T05:01:02.942Z,18.66
2022-10-29T05:03:30.970Z,18.83
2022-10-29T05:05:58.869Z,18.86
2022-10-29T05:08:28.091Z,18.83
2022-10-29T05:10:56.054Z,18.99
2022-10-29T05:13:23.995Z,19.19
2022-10-29T05:15:53.538Z,19.35
2022-10-29T05:18:21.675Z,19.41
2022-10-29T05:20:49.545Z,19.41
2022-10-29T05:23:17.310Z,19.46
2022-10-29T05:25:49.092Z,19.52
2022-10-29T05:28:19.362Z,19.60
2022-10-29T05:30:47.679Z,19.68
2022-10-29T05:33:16.938Z,19.76
2022-10-29T05:35:45.128Z,19.80
2022-10-29T05:38:13.923Z,19.84
2022-10-29T05:40:42.775Z,19.83
2022-10-29T05:43:12.051Z,19.85
2022-10-29T05:45:39.925Z,19.86
2022-10-29T05:48:08.116Z,19.91
2022-10-29T05:50:36.052Z,19.92
2022-10-29T05:53:05.611Z,19.86
2022-10-29T05:55:34.937Z,19.86
2022-10-29T05:58:04.045Z,19.95
2022-10-29T06:00:35.151Z,19.82
2022-10-29T06:03:03.073Z,19.95
2022-10-29T06:05:31.126Z,19.95
2022-10-29T06:08:00.763Z,19.90
2022-10-29T06:10:30.658Z,19.64
2022-10-29T06:12:58.480Z,19.67
2022-10-29T06:15:26.450Z,19.75
2022-10-29T06:17:56.098Z,19.63
2022-10-29T06:20:24.148Z,19.66
2022-10-29T06:22:58.095Z,19.70
2022-10-29T06:25:26.585Z,19.62
2022-10-29T06:28:01.963Z,19.60
2022-10-29T06:30:30.458Z,19.67
2022-10-29T06:32:59.991Z,19.59
2022-10-29T06:35:28.384Z,19.73
2022-10-29T06:37:56.659Z,19.77
2022-10-29T06:40:24.770Z,19.78
2022-10-29T06:42:59.963Z,19.77
2022-10-29T06:45:28.086Z,19.76
2022-10-29T06:47:56.135Z,19.85
2022-10-29T06:50:25.987Z,19.91
2022-10-29T06:52:58.571Z,20.12
2022-10-29T06:55:27.139Z,20.17
2022-10-29T06:57:58.903Z,20.11
2022-10-29T07:00:26.809Z,20.37
2022-10-29T07:02:55.144Z,20.42
2022-10-29T07:05:23.588Z,20.56
2022-10-29T07:07:56.055Z,20.64
2022-10-29T07:10:24.464Z,20.71
2022-10-29T07:12:52.269Z,20.80
2022-10-29T07:15:23.012Z,20.82
2022-10-29T07:17:59.348Z,20.86
2022-10-29T07:20:27.732Z,20.95
2022-10-29T07:22:57.576Z,21.08
2022-10-29T07:25:25.638Z,21.09
2022-10-29T07:27:53.694Z,21.17
2022-10-29T07:30:22.578Z,21.22
2022-10-29T07:32:50.453Z,21.34
2022-10-29T07:35:18.414Z,21.33
2022-10-29T07:37:46.338Z,21.50
2022-10-29T07:40:15.808Z,21.61
2022-10-29T07:42:43.657Z,21.60
2022-10-29T07:45:12.011Z,21.64
2022-10-29T07:47:39.979Z,21.69
2022-10-29T07:50:08.942Z,21.66
2022-10-29T07:52:36.812Z,21.58
2022-10-29T07:55:04.781Z,21.71
2022-10-29T07:57:34.011Z,21.83
2022-10-29T08:00:02.192Z,22.10
2022-10-29T08:02:40.018Z,22.29
2022-10-29T08:05:08.731Z,22.27
2022-10-29T08:07:36.593Z,22.27
2022-10-29T08:10:04.497Z,22.54
2022-10-29T08:12:33.920Z,22.77
2022-10-29T08:15:01.805Z,22.99
2022-10-29T08:17:30.486Z,23.25
2022-10-29T08:19:58.569Z,23.42
2022-10-29T08:22:26.434Z,23.54
2022-10-29T08:24:54.318Z,23.35
2022-10-29T08:27:22.193Z,23.05
2022-10-29T08:29:51.432Z,23.02
2022-10-29T08:32:19.309Z,23.03
2022-10-29T08:35:07.161Z,22.96
2022-10-29T08:37:35.063Z,22.94
2022-10-29T08:40:02.877Z,23.00
2022-10-29T08:42:43.755Z,23.34
2022-10-29T08:45:21.456Z,23.28
2022-10-29T08:48:11.468Z,23.31
2022-10-29T08:50:41.999Z,23.48
2022-10-29T08:53:23.439Z,23.51
2022-10-29T08:55:52.389Z,23.73
2022-10-29T08:58:25.341Z,23.76
2022-10-29T09:00:57.516Z,23.70
2022-10-29T09:03:26.195Z,23.38
2022-10-29T09:06:01.522Z,23.28
2022-10-29T09:08:38.820Z,23.35
2022-10-29T09:11:17.240Z,23.34
2022-10-29T09:13:50.809Z,23.45
2022-10-29T09:16:37.847Z,23.19
2022-10-29T09:19:29.876Z,23.59
2022-10-29T09:22:03.573Z,23.70
2022-10-29T09:24:36.152Z,24.10
2022-10-29T09:27:10.785Z,24.36
2022-10-29T09:29:59.579Z,24.24
2022-10-29T09:32:31.806Z,24.57
2022-10-29T09:35:03.196Z,24.78
2022-10-29T09:37:37.182Z,24.47
2022-10-29T09:40:07.812Z,24.63
2022-10-29T09:42:38.106Z,24.91
2022-10-29T09:45:09.446Z,24.60
2022-10-29T09:47:44.017Z,25.22
2022-10-29T09:50:18.058Z,25.31
2022-10-29T09:52:47.070Z,25.36
2022-10-29T09:55:19.943Z,25.37
2022-10-29T09:57:49.686Z,25.59
2022-10-29T10:00:21.856Z,25.79
2022-10-29T10:02:55.818Z,26.23
2022-10-29T10:05:27.353Z,26.32
2022-10-29T10:08:10.775Z,26.89
2022-10-29T10:10:51.197Z,26.73
2022-10-29T10:13:21.779Z,27.26
2022-10-29T10:15:55.186Z,27.88
2022-10-29T10:18:25.129Z,28.16
2022-10-29T10:21:03.234Z,27.88
2022-10-29T10:23:32.095Z,28.05
2022-10-29T10:26:03.772Z,28.01
2022-10-29T10:28:34.465Z,27.81
2022-10-29T10:31:07.112Z,27.71
2022-10-29T10:33:36.486Z,27.63
2022-10-29T10:36:05.513Z,27.87
2022-10-29T10:38:38.792Z,28.12
2022-10-29T10:41:06.787Z,28.35
2022-10-29T10:43:34.517Z,28.62
2022-10-29T10:46:05.491Z,28.64
2022-10-29T10:48:34.165Z,28.51
2022-10-29T10:51:14.980Z,28.58
2022-10-29T10:53:42.622Z,29.02
2022-10-29T10:56:16.209Z,29.24
2022-10-29T10:58:45.026Z,29.46
2022-10-29T11:01:13.530Z,29.38
2022-10-29T11:03:42.296Z,29.44
2022-10-29T11:06:11.395Z,28.98
2022-10-29T11:08:42.089Z,28.19
2022-10-29T11:11:11.288Z,27.38
2022-10-29T11:13:39.988Z,27.66
2022-10-29T11:16:08.966Z,28.06
2022-10-29T11:18:37.542Z,27.90
2022-10-29T11:21:06.671Z,28.49
2022-10-29T11:23:37.041Z,29.34
2022-10-29T11:26:07.975Z,29.82
2022-10-29T11:28:39.800Z,30.53
2022-10-29T11:31:13.882Z,29.38
2022-10-29T11:33:47.196Z,30.11
2022-10-29T11:36:18.577Z,30.06
2022-10-29T11:38:49.348Z,29.62
2022-10-29T11:41:24.610Z,28.77
2022-10-29T11:43:52.714Z,28.47
2022-10-29T11:46:27.911Z,28.21
2022-10-29T11:49:04.093Z,28.00
2022-10-29T11:51:36.875Z,28.95
2022-10-29T11:54:09.341Z,29.24
2022-10-29T11:56:48.580Z,28.74
2022-10-29T11:59:23.961Z,29.10
2022-10-29T12:01:59.020Z,29.39
2022-10-29T12:04:32.338Z,29.28
2022-10-29T12:07:15.517Z,29.37
2022-10-29T12:10:02.693Z,29.51
2022-10-29T12:12:38.317Z,29.84
2022-10-29T12:15:14.951Z,29.99
2022-10-29T12:17:46.640Z,30.07
2022-10-29T12:20:22.149Z,30.43
2022-10-29T12:23:02.559Z,31.19
2022-10-29T12:25:40.510Z,30.28
2022-10-29T12:28:19.225Z,29.80
2022-10-29T12:30:55.819Z,29.66
2022-10-29T12:33:26.197Z,29.20
2022-10-29T12:35:59.244Z,29.31
2022-10-29T12:38:37.063Z,30.01
2022-10-29T12:41:07.389Z,30.00
2022-10-29T12:43:37.421Z,30.51
2022-10-29T12:46:19.881Z,29.98
2022-10-29T12:48:57.416Z,28.90
2022-10-29T12:51:29.543Z,28.56
2022-10-29T12:54:17.433Z,28.77
2022-10-29T12:56:47.911Z,28.59
2022-10-29T12:59:34.728Z,28.92
2022-10-29T13:02:24.091Z,28.33
2022-10-29T13:05:14.920Z,28.70
2022-10-29T13:08:20.077Z,28.46
2022-10-29T13:10:52.880Z,28.97
2022-10-29T13:13:27.366Z,29.53
2022-10-29T13:16:02.295Z,29.78
2022-10-29T13:18:33.971Z,30.04
2022-10-29T13:21:04.309Z,30.11
2022-10-29T13:23:35.000Z,30.04
2022-10-29T13:26:03.630Z,29.88
2022-10-29T13:29:01.537Z,30.02
2022-10-29T13:31:50.388Z,30.21
2022-10-29T13:34:51.570Z,30.25
2022-10-29T13:37:39.620Z,30.59
2022-10-29T13:40:47.249Z,30.57
2022-10-29T13:43:19.807Z,29.62
2022-10-29T13:45:51.412Z,30.36
2022-10-29T13:48:26.500Z,29.71
2022-10-29T13:50:56.421Z,29.16
2022-10-29T13:53:28.691Z,28.86
2022-10-29T13:55:57.020Z,28.44
2022-10-29T13:58:29.298Z,28.19
2022-10-29T14:00:58.485Z,28.39
2022-10-29T14:03:32.453Z,28.46
2022-10-29T14:06:01.943Z,29.90
2022-10-29T14:08:36.541Z,29.63
2022-10-29T14:11:10.368Z,29.25
2022-10-29T14:13:45.614Z,28.91
2022-10-29T14:16:15.370Z,29.06
2022-10-29T14:18:45.573Z,29.21
2022-10-29T14:21:15.675Z,29.37
2022-10-29T14:23:56.134Z,30.05
2022-10-29T14:26:24.864Z,29.89
2022-10-29T14:28:53.231Z,30.63
2022-10-29T14:31:22.634Z,30.84
2022-10-29T14:33:56.756Z,31.11
2022-10-29T14:36:30.386Z,31.62
2022-10-29T14:39:00.672Z,30.98
2022-10-29T14:41:30.014Z,29.80
2022-10-29T14:44:04.696Z,29.15
2022-10-29T14:46:34.977Z,29.52
2022-10-29T14:49:12.795Z,29.85
2022-10-29T14:51:42.013Z,29.83
2022-10-29T14:54:17.652Z,29.76
2022-10-29T14:56:46.328Z,29.26
2022-10-29T14:59:21.691Z,29.13
2022-10-29T15:01:56.727Z,29.06
2022-10-29T15:04:31.469Z,28.89
2022-10-29T15:07:23.477Z,28.67
2022-10-29T15:09:52.048Z,28.31
2022-10-29T15:12:22.395Z,27.83
2022-10-29T15:14:51.828Z,27.93
2022-10-29T15:17:22.939Z,27.60
2022-10-29T15:19:54.269Z,27.46
2022-10-29T15:22:26.957Z,27.46
2022-10-29T15:24:56.032Z,27.32
2022-10-29T15:27:24.376Z,27.30
2022-10-29T15:29:53.439Z,27.17
2022-10-29T15:32:22.740Z,27.31
2022-10-29T15:34:54.180Z,27.06
2022-10-29T15:37:25.505Z,26.96
2022-10-29T15:40:12.246Z,26.83
2022-10-29T15:42:40.296Z,26.63
2022-10-29T15:45:19.536Z,26.55
2022-10-29T15:47:49.360Z,26.54
2022-10-29T15:50:20.906Z,26.35
2022-10-29T15:52:53.514Z,26.24
2022-10-29T15:55:26.764Z,26.16
2022-10-29T15:57:57.052Z,25.98
2022-10-29T16:00:25.182Z,25.93
2022-10-29T16:02:53.135Z,25.70
2022-10-29T16:05:22.340Z,25.69
2022-10-29T16:07:50.315Z,25.59
2022-10-29T16:10:20.651Z,25.44
2022-10-29T16:12:49.658Z,25.42
2022-10-29T16:15:19.250Z,25.23
2022-10-29T16:17:47.931Z,24.86
2022-10-29T16:20:17.248Z,24.72
2022-10-29T16:22:47.042Z,24.60
2022-10-29T16:25:22.783Z,24.66
2022-10-29T16:27:50.977Z,24.44
2022-10-29T16:30:19.859Z,24.29
2022-10-29T16:32:49.822Z,24.11
2022-10-29T16:35:20.740Z,24.17
2022-10-29T16:37:50.739Z,24.14
2022-10-29T16:40:19.382Z,24.22
2022-10-29T16:42:47.688Z,24.28
2022-10-29T16:45:17.377Z,24.21
2022-10-29T16:47:45.314Z,24.04
2022-10-29T16:50:21.007Z,24.20
2022-10-29T16:52:57.701Z,24.30
2022-10-29T16:55:25.659Z,24.30
2022-10-29T16:57:53.604Z,24.23
2022-10-29T17:00:22.151Z,24.13
2022-10-29T17:02:49.992Z,24.02
2022-10-29T17:05:18.155Z,23.82
2022-10-29T17:07:45.932Z,23.70
2022-10-29T17:10:15.202Z,23.67
2022-10-29T17:12:43.009Z,23.72
2022-10-29T17:15:11.411Z,23.75
2022-10-29T17:17:42.387Z,23.64
2022-10-29T17:20:13.316Z,23.76
2022-10-29T17:22:41.255Z,23.82
2022-10-29T17:25:10.569Z,23.90
2022-10-29T17:27:40.612Z,24.03
2022-10-29T17:30:10.427Z,23.90
2022-10-29T17:32:38.394Z,23.80
2022-10-29T17:35:07.023Z,23.83
2022-10-29T17:37:34.915Z,23.87
2022-10-29T17:40:06.782Z,23.76
2022-10-29T17:42:36.121Z,23.75
2022-10-29T17:45:06.140Z,23.81
2022-10-29T17:47:34.087Z,23.64
2022-10-29T17:50:01.968Z,23.59
2022-10-29T17:52:29.890Z,23.44
2022-10-29T17:54:57.742Z,23.32
2022-10-29T17:57:25.616Z,23.45
2022-10-29T17:59:53.459Z,23.42
2022-10-29T18:02:22.914Z,23.33
2022-10-29T18:04:50.944Z,23.24
2022-10-29T18:07:19.070Z,23.14
2022-10-29T18:09:46.963Z,23.08
2022-10-29T18:12:14.784Z,23.15
2022-10-29T18:14:42.706Z,22.90
2022-10-29T18:17:10.591Z,22.89
2022-10-29T18:19:39.847Z,22.83
2022-10-29T18:22:07.802Z,23.02
2022-10-29T18:24:35.703Z,22.85
2022-10-29T18:27:03.601Z,22.96
2022-10-29T18:29:31.439Z,22.91
2022-10-29T18:31:59.527Z,22.78
2022-10-29T18:34:27.478Z,22.96
2022-10-29T18:36:56.682Z,22.73
2022-10-29T18:39:24.549Z,22.73
2022-10-29T18:41:52.479Z,22.79
2022-10-29T18:44:20.309Z,22.69
2022-10-29T18:46:48.178Z,22.68
2022-10-29T18:49:16.197Z,22.78
2022-10-29T18:51:44.130Z,22.50
2022-10-29T18:54:14.600Z,22.73
2022-10-29T18:56:42.777Z,22.74
2022-10-29T18:59:11.453Z,22.71
2022-10-29T19:01:39.820Z,22.65
2022-10-29T19:04:12.638Z,22.37
2022-10-29T19:06:40.559Z,22.58
2022-10-29T19:09:10.119Z,22.64
2022-10-29T19:11:39.341Z,22.76
2022-10-29T19:14:08.804Z,22.60
2022-10-29T19:16:36.710Z,22.75
2022-10-29T19:21:35.661Z,22.73
2022-10-29T19:24:03.561Z,22.72
2022-10-29T19:26:34.893Z,22.89
2022-10-29T19:29:05.547Z,22.94
2022-10-29T19:31:34.232Z,22.98
2022-10-29T19:34:05.456Z,22.99
2022-10-29T19:36:34.442Z,23.06
2022-10-29T19:39:02.429Z,22.94
2022-10-29T19:41:30.566Z,23.10
2022-10-29T19:44:01.026Z,23.12
2022-10-29T19:46:30.753Z,23.05
2022-10-29T19:48:59.112Z,23.19
2022-10-29T19:51:26.986Z,23.02
2022-10-29T19:53:57.207Z,23.03
2022-10-29T19:56:25.055Z,22.97
2022-10-29T19:58:52.900Z,22.88
2022-10-29T20:01:20.949Z,22.94
2022-10-29T20:03:50.324Z,23.21
2022-10-29T20:06:18.368Z,23.06
2022-10-29T20:08:46.336Z,22.97
2022-10-29T20:11:14.203Z,22.98
2022-10-29T20:13:42.141Z,23.12
2022-10-29T20:16:10.866Z,23.14
2022-10-29T20:18:39.741Z,23.38
2022-10-29T20:21:09.019Z,23.19
2022-10-29T20:23:37.326Z,23.37
2022-10-29T20:26:05.296Z,23.47
2022-10-29T20:28:33.282Z,23.42
2022-10-29T20:31:15.254Z,23.33
2022-10-29T20:33:43.457Z,23.32
2022-10-29T20:36:12.713Z,23.29
2022-10-29T20:38:40.604Z,23.11
2022-10-29T20:41:08.482Z,23.06
2022-10-29T20:43:36.484Z,22.85
2022-10-29T20:46:04.591Z,22.61
2022-10-29T20:48:32.772Z,22.70
2022-10-29T20:51:00.600Z,22.81
2022-10-29T20:53:29.941Z,22.92
2022-10-29T20:55:57.815Z,22.84
2022-10-29T20:58:25.771Z,22.92
2022-10-29T21:00:53.672Z,22.86
2022-10-29T21:03:21.569Z,22.77
2022-10-29T21:05:49.472Z,22.97
2022-10-29T21:08:17.723Z,22.92
2022-10-29T21:10:46.933Z,22.87
2022-10-29T21:13:14.807Z,22.92
2022-10-29T21:15:42.631Z,23.17
2022-10-29T21:18:10.404Z,23.17
2022-10-29T21:20:38.238Z,23.39
2022-10-29T21:23:06.227Z,23.05
2022-10-29T21:25:34.163Z,23.03
2022-10-29T21:28:03.320Z,23.12
2022-10-29T21:30:31.192Z,22.73
2022-10-29T21:32:59.002Z,22.90
2022-10-29T21:35:26.817Z,22.81
2022-10-29T21:37:54.958Z,22.71
2022-10-29T21:40:23.116Z,22.82
2022-10-29T21:42:50.911Z,22.71
2022-10-29T21:45:20.145Z,22.70
2022-10-29T21:47:49.379Z,22.86
2022-10-29T21:50:17.246Z,22.51
2022-10-29T21:52:45.092Z,22.67
2022-10-29T21:55:12.874Z,22.93
2022-10-29T21:57:43.716Z,22.82
2022-10-29T22:00:13.899Z,22.81
2022-10-29T22:02:43.240Z,22.75
2022-10-29T22:05:11.377Z,22.63
2022-10-29T22:07:39.239Z,22.51
2022-10-29T22:10:07.877Z,22.44
2022-10-29T22:12:35.748Z,22.46
2022-10-29T22:15:04.267Z,22.35
2022-10-29T22:17:32.441Z,22.66
2022-10-29T22:20:01.688Z,22.46
2022-10-29T22:22:29.540Z,22.29
2022-10-29T22:24:57.368Z,22.46
2022-10-29T22:27:25.234Z,22.23
2022-10-29T22:29:54.469Z,22.39
2022-10-29T22:32:22.570Z,22.35
2022-10-29T22:34:50.382Z,22.24
2022-10-29T22:37:19.591Z,22.28
2022-10-29T22:39:47.771Z,22.35
2022-10-29T22:42:16.102Z,22.13
2022-10-29T22:44:43.974Z,22.16
2022-10-29T22:47:11.891Z,21.98
2022-10-29T22:49:39.680Z,21.85
2022-10-29T22:52:07.544Z,21.96
2022-10-29T22:54:36.738Z,22.17
2022-10-29T22:57:04.715Z,21.99
2022-10-29T22:59:32.585Z,22.11
2022-10-29T23:02:00.524Z,22.14
2022-10-29T23:04:28.662Z,22.09
2022-10-29T23:07:01.626Z,22.33
2022-10-29T23:09:29.559Z,21.92
2022-10-29T23:11:58.775Z,21.81
2022-10-29T23:14:26.654Z,22.17
2022-10-29T23:16:54.550Z,22.10
2022-10-29T23:19:22.604Z,22.05
2022-10-29T23:21:50.446Z,22.04
2022-10-29T23:24:18.287Z,22.13
2022-10-29T23:26:46.273Z,22.11
2022-10-29T23:29:15.477Z,22.28
2022-10-29T23:31:43.347Z,22.10
2022-10-29T23:34:12.652Z,22.21
2022-10-29T23:36:40.440Z,22.40
2022-10-29T23:39:08.423Z,22.26
2022-10-29T23:41:36.353Z,22.27
2022-10-29T23:44:04.830Z,22.30
2022-10-29T23:46:34.123Z,22.09
2022-10-29T23:49:01.895Z,22.39
2022-10-29T23:51:29.953Z,22.37
2022-10-29T23:53:57.939Z,22.24
2022-10-29T23:56:26.026Z,22.52
2022-10-29T23:58:53.890Z,22.01
